VIT weather

Public forecast

Using degrees Celsius for public forecast. Weather courtesy of forecast.io.

Closest aviation weather report (METAR) to Santa Victoria Airport

Closest report is Yacuiba Airport, 55.7 nm (103.2 km) WNW. Retrieved 2020/08/12 12:25 UTC (30 minutes ago):

SLYA 121225Z 00000KT 9999 OVC070 10/05 Q1014

Closest aviation forecast (TAF) to Santa Victoria Airport

Forecast is more than 12 hours old.

Closest forecast is Yacuiba Airport, 55.7 nm (103.2 km) WNW. Retrieved 2020/08/11 18:30 UTC (18 hours ago):

TAF SLYA 111630Z 1118/1218 21010KT 9999 FEW023 BKN070 TX22/1119Z TN10/1211Z BECMG 1120/1122 00000KT